Time;durP1;ratioP1;P1;durP2;ratioP2;P2;SDS_P1;SDS_P2;PMS_P1;PMS_P2;Temp;Humidity;BMP_temperature;BMP_pressure;BME280_temperature;BME280_humidity;BME280_pressure;Samples;Min_cycle;Max_cycle;Signal;HPM_P1;HPM_P2
2021/05/24 00:02:17;;;;;;;4.47;3.33;;;;;;;;;;5008970;28;20204;-71
2021/05/24 00:04:43;;;;;;;6.70;3.63;;;;;;;;;;5007738;28;20648;-70
2021/05/24 00:07:10;;;;;;;6.07;4.13;;;;;;;;;;5014351;28;20213;-70
2021/05/24 00:09:36;;;;;;;3.83;3.53;;;;;;;;;;5009645;28;20271;-71
2021/05/24 00:12:03;;;;;;;4.80;3.90;;;;;;;;;;5005964;28;20228;-70
2021/05/24 00:14:30;;;;;;;5.10;3.63;;;;;;;;;;5007436;28;20197;-70
2021/05/24 00:16:56;;;;;;;3.93;3.53;;;;;;;;;;5008008;28;20288;-70
2021/05/24 00:19:22;;;;;;;3.60;3.27;;;;;;;;;;5005124;28;20206;-71
2021/05/24 00:21:48;;;;;;;3.73;3.10;;;;;;;;;;5001348;28;20869;-70
2021/05/24 00:24:14;;;;;;;4.30;3.93;;;;;;;;;;5002251;28;20627;-70
2021/05/24 00:26:40;;;;;;;4.77;3.60;;;;;;;;;;5004111;28;20276;-71
2021/05/24 00:29:06;;;;;;;5.13;3.50;;;;;;;;;;5006748;28;20189;-70
2021/05/24 00:31:32;;;;;;;4.13;3.73;;;;;;;;;;5007752;28;20227;-70
2021/05/24 00:33:58;;;;;;;4.90;3.93;;;;;;;;;;5005765;28;20525;-70
2021/05/24 00:36:24;;;;;;;7.03;4.63;;;;;;;;;;5005043;28;20292;-71
2021/05/24 00:38:50;;;;;;;4.80;3.77;;;;;;;;;;5004062;28;20271;-70
2021/05/24 00:41:16;;;;;;;3.93;3.63;;;;;;;;;;5004116;28;20188;-71
2021/05/24 00:43:42;;;;;;;4.30;3.90;;;;;;;;;;5006302;28;20216;-69
2021/05/24 00:46:08;;;;;;;5.10;4.30;;;;;;;;;;5002575;28;20194;-70
2021/05/24 00:48:34;;;;;;;5.43;3.67;;;;;;;;;;5007947;28;20490;-71
2021/05/24 00:51:00;;;;;;;5.20;4.70;;;;;;;;;;5002337;28;20459;-69
2021/05/24 00:53:26;;;;;;;7.67;4.00;;;;;;;;;;5002554;28;20212;-71
2021/05/24 00:55:52;;;;;;;5.37;4.10;;;;;;;;;;5004912;28;20213;-70
2021/05/24 00:58:18;;;;;;;7.47;3.93;;;;;;;;;;5000083;28;20232;-70
2021/05/24 01:00:47;;;;;;;4.70;3.93;;;;;;;;;;5006029;28;20208;-70
2021/05/24 01:03:13;;;;;;;4.53;3.77;;;;;;;;;;5007611;28;20275;-70
2021/05/24 01:05:40;;;;;;;5.60;3.97;;;;;;;;;;5008068;28;20200;-70
2021/05/24 01:08:07;;;;;;;5.07;3.80;;;;;;;;;;5009480;28;20919;-70
2021/05/24 01:10:34;;;;;;;5.53;3.27;;;;;;;;;;5011986;28;20192;-69
2021/05/24 01:13:00;;;;;;;3.97;3.67;;;;;;;;;;5003318;28;20427;-70
2021/05/24 01:15:28;;;;;;;4.00;3.60;;;;;;;;;;5010950;28;20574;-70
2021/05/24 01:17:55;;;;;;;5.93;3.77;;;;;;;;;;5007524;28;20190;-69
2021/05/24 01:20:21;;;;;;;4.47;3.67;;;;;;;;;;5006263;28;20185;-70
2021/05/24 01:22:57;;;;;;;6.07;3.77;;;;;;;;;;5011423;28;20209;-70
2021/05/24 01:25:23;;;;;;;5.17;3.70;;;;;;;;;;5019470;28;20314;-70
2021/05/24 01:27:49;;;;;;;6.70;4.50;;;;;;;;;;5007168;28;20248;-70
2021/05/24 01:30:15;;;;;;;5.87;3.90;;;;;;;;;;5007886;28;20624;-70
2021/05/24 01:32:41;;;;;;;4.40;4.00;;;;;;;;;;5007849;28;20284;-69
2021/05/24 01:35:08;;;;;;;4.40;4.00;;;;;;;;;;5005791;28;20288;-69
2021/05/24 01:37:34;;;;;;;5.43;4.73;;;;;;;;;;5006336;28;20176;-69
2021/05/24 01:40:00;;;;;;;7.90;4.80;;;;;;;;;;5015271;28;20304;-69
2021/05/24 01:42:27;;;;;;;6.27;4.43;;;;;;;;;;5005926;28;20246;-71
2021/05/24 01:44:52;;;;;;;5.17;4.00;;;;;;;;;;5013689;28;20666;-69
2021/05/24 01:47:18;;;;;;;5.83;4.80;;;;;;;;;;5005047;28;20292;-71
2021/05/24 01:49:47;;;;;;;5.20;4.70;;;;;;;;;;5007364;28;20201;-69
2021/05/24 01:52:14;;;;;;;5.10;4.47;;;;;;;;;;5005587;28;20239;-71
2021/05/24 01:54:41;;;;;;;4.77;4.27;;;;;;;;;;5004626;28;20647;-70
2021/05/24 01:57:07;;;;;;;4.97;4.13;;;;;;;;;;5009674;28;20323;-71
2021/05/24 01:59:33;;;;;;;4.57;4.17;;;;;;;;;;5025601;28;20249;-69
2021/05/24 02:01:59;;;;;;;6.03;4.40;;;;;;;;;;5024982;28;20568;-69
2021/05/24 02:04:25;;;;;;;5.33;3.90;;;;;;;;;;5015229;28;20271;-70
2021/05/24 02:06:51;;;;;;;7.13;4.97;;;;;;;;;;5008592;28;20224;-70
2021/05/24 02:09:17;;;;;;;5.40;4.13;;;;;;;;;;5014204;28;20184;-70
2021/05/24 02:11:43;;;;;;;4.90;4.27;;;;;;;;;;5007526;28;20193;-70
2021/05/24 02:14:10;;;;;;;4.77;4.37;;;;;;;;;;5009312;28;20188;-70
2021/05/24 02:16:36;;;;;;;6.00;4.90;;;;;;;;;;5021525;28;20240;-70
2021/05/24 02:19:02;;;;;;;4.43;4.03;;;;;;;;;;5009105;28;20182;-70
2021/05/24 02:21:28;;;;;;;4.40;4.00;;;;;;;;;;5008076;28;20710;-70
2021/05/24 02:23:54;;;;;;;4.90;4.50;;;;;;;;;;5003500;28;20205;-71
2021/05/24 02:26:20;;;;;;;6.20;4.50;;;;;;;;;;5023395;28;20185;-70
2021/05/24 02:28:46;;;;;;;4.43;4.03;;;;;;;;;;5009742;28;20203;-69
2021/05/24 02:31:12;;;;;;;5.00;4.13;;;;;;;;;;5005178;28;20227;-69
2021/05/24 02:33:38;;;;;;;4.60;4.20;;;;;;;;;;5005121;28;20598;-71
2021/05/24 02:36:04;;;;;;;4.50;3.67;;;;;;;;;;5007349;28;20209;-70
2021/05/24 02:38:30;;;;;;;5.20;4.60;;;;;;;;;;5009746;28;20267;-71
2021/05/24 02:40:56;;;;;;;7.53;4.50;;;;;;;;;;5006056;28;20228;-69
2021/05/24 02:43:22;;;;;;;4.70;3.93;;;;;;;;;;5004020;28;20283;-69
2021/05/24 02:45:49;;;;;;;7.40;4.10;;;;;;;;;;5008481;28;20667;-70
2021/05/24 02:48:16;;;;;;;5.23;4.57;;;;;;;;;;5007150;28;20323;-70
2021/05/24 02:50:41;;;;;;;5.37;4.60;;;;;;;;;;5007078;28;20186;-70
2021/05/24 02:53:08;;;;;;;5.33;4.53;;;;;;;;;;5004799;28;20216;-70
2021/05/24 02:55:34;;;;;;;6.00;4.53;;;;;;;;;;5006486;28;20217;-70
2021/05/24 02:58:00;;;;;;;6.70;5.30;;;;;;;;;;5016517;28;20185;-70
2021/05/24 03:00:26;;;;;;;5.13;4.63;;;;;;;;;;5015212;28;20202;-70
2021/05/24 03:02:52;;;;;;;5.53;4.87;;;;;;;;;;5008585;28;20299;-70
2021/05/24 03:05:22;;;;;;;5.37;4.77;;;;;;;;;;5012757;28;20216;-71
2021/05/24 03:07:48;;;;;;;6.10;4.60;;;;;;;;;;5016072;28;20205;-68
2021/05/24 03:10:15;;;;;;;4.90;4.40;;;;;;;;;;5011405;28;20714;-70
2021/05/24 03:12:41;;;;;;;6.40;4.27;;;;;;;;;;5010116;28;20212;-70
2021/05/24 03:15:08;;;;;;;4.93;4.53;;;;;;;;;;5006736;28;20212;-70
2021/05/24 03:17:34;;;;;;;6.43;4.63;;;;;;;;;;5005625;28;20233;-70
2021/05/24 03:20:00;;;;;;;6.23;5.00;;;;;;;;;;5001922;28;20622;-70
2021/05/24 03:22:26;;;;;;;5.60;4.67;;;;;;;;;;5004626;28;20255;-71
2021/05/24 03:24:52;;;;;;;5.93;4.60;;;;;;;;;;5001661;28;20189;-70
2021/05/24 03:27:18;;;;;;;6.90;4.87;;;;;;;;;;5001470;28;20283;-70
2021/05/24 03:29:44;;;;;;;6.33;4.57;;;;;;;;;;5009423;28;20496;-70
2021/05/24 03:32:10;;;;;;;4.93;4.53;;;;;;;;;;4998543;28;21471;-71
2021/05/24 03:34:36;;;;;;;4.63;4.23;;;;;;;;;;4997830;28;20204;-70
2021/05/24 03:37:02;;;;;;;5.60;4.70;;;;;;;;;;5004181;28;20604;-70
2021/05/24 03:39:28;;;;;;;6.53;4.63;;;;;;;;;;5002007;28;20209;-70
2021/05/24 03:41:54;;;;;;;4.97;4.47;;;;;;;;;;4999768;28;20220;-70
2021/05/24 03:44:20;;;;;;;4.43;4.03;;;;;;;;;;5007887;28;20232;-70
2021/05/24 03:46:46;;;;;;;4.43;4.03;;;;;;;;;;5005744;28;20197;-70
2021/05/24 03:49:12;;;;;;;5.90;4.10;;;;;;;;;;5001740;28;20596;-70
2021/05/24 03:51:39;;;;;;;6.40;4.00;;;;;;;;;;5004112;28;20186;-69
2021/05/24 03:54:05;;;;;;;4.33;3.93;;;;;;;;;;5000839;28;20189;-69
2021/05/24 03:56:31;;;;;;;5.00;4.50;;;;;;;;;;5003979;28;20283;-70
2021/05/24 03:58:57;;;;;;;5.00;4.50;;;;;;;;;;5004997;28;20224;-69
2021/05/24 04:01:23;;;;;;;6.63;4.43;;;;;;;;;;5002161;28;20645;-70
2021/05/24 04:03:51;;;;;;;5.93;4.07;;;;;;;;;;5005427;28;20208;-70
2021/05/24 04:06:18;;;;;;;7.47;4.90;;;;;;;;;;5007177;28;20212;-70
2021/05/24 04:08:46;;;;;;;7.37;4.40;;;;;;;;;;5007878;28;20587;-70
2021/05/24 04:11:13;;;;;;;5.27;4.20;;;;;;;;;;5004554;28;20283;-70
2021/05/24 04:13:42;;;;;;;4.80;4.40;;;;;;;;;;5005387;28;20208;-70
2021/05/24 04:16:08;;;;;;;4.20;3.80;;;;;;;;;;5004977;28;20570;-69
2021/05/24 04:18:35;;;;;;;5.57;4.27;;;;;;;;;;5004170;28;20185;-70
2021/05/24 04:21:02;;;;;;;5.63;3.97;;;;;;;;;;5006844;28;20192;-69
2021/05/24 04:23:28;;;;;;;5.13;4.47;;;;;;;;;;5002088;28;20292;-70
2021/05/24 04:25:54;;;;;;;8.43;5.60;;;;;;;;;;5007615;28;20287;-70
2021/05/24 04:28:20;;;;;;;6.50;4.97;;;;;;;;;;5009500;28;20562;-71
2021/05/24 04:30:46;;;;;;;7.47;4.87;;;;;;;;;;5006288;28;20185;-71
2021/05/24 04:33:13;;;;;;;5.20;4.70;;;;;;;;;;5005357;28;20209;-70
2021/05/24 04:35:39;;;;;;;4.60;4.17;;;;;;;;;;4999751;28;20278;-70
2021/05/24 04:38:05;;;;;;;5.30;3.93;;;;;;;;;;5006039;28;20280;-71
2021/05/24 04:40:32;;;;;;;4.57;4.10;;;;;;;;;;5011755;28;20193;-71
2021/05/24 04:42:58;;;;;;;6.93;4.10;;;;;;;;;;5003705;28;20600;-71
2021/05/24 04:45:25;;;;;;;5.33;4.50;;;;;;;;;;5005354;28;20196;-70
2021/05/24 04:47:51;;;;;;;5.10;4.27;;;;;;;;;;5006217;28;20184;-70
2021/05/24 04:50:17;;;;;;;4.13;3.83;;;;;;;;;;5012820;28;20188;-71
2021/05/24 04:52:43;;;;;;;6.90;4.30;;;;;;;;;;5003290;28;20197;-70
2021/05/24 04:55:10;;;;;;;7.57;4.30;;;;;;;;;;5009428;28;20776;-70
2021/05/24 04:57:36;;;;;;;5.07;4.20;;;;;;;;;;5002994;28;20314;-71
2021/05/24 05:00:04;;;;;;;9.93;4.30;;;;;;;;;;5004876;28;20177;-71
2021/05/24 05:02:30;;;;;;;4.90;4.10;;;;;;;;;;5000480;28;20240;-71
2021/05/24 05:04:56;;;;;;;6.40;4.47;;;;;;;;;;4993574;28;20240;-70
2021/05/24 05:07:22;;;;;;;4.43;4.00;;;;;;;;;;5011763;28;20239;-71
2021/05/24 05:09:48;;;;;;;5.20;4.30;;;;;;;;;;5003526;28;20225;-71
2021/05/24 05:12:14;;;;;;;6.27;4.67;;;;;;;;;;5000113;28;20208;-71
2021/05/24 05:14:40;;;;;;;5.10;4.50;;;;;;;;;;5006701;28;20566;-70
2021/05/24 05:17:06;;;;;;;6.17;3.80;;;;;;;;;;5004197;28;20212;-70
2021/05/24 05:19:32;;;;;;;4.77;4.27;;;;;;;;;;5006026;28;20247;-71
2021/05/24 05:21:58;;;;;;;6.07;3.97;;;;;;;;;;5006464;28;20630;-70
2021/05/24 05:24:24;;;;;;;6.60;4.27;;;;;;;;;;5000768;28;20193;-71
2021/05/24 05:26:50;;;;;;;4.50;3.93;;;;;;;;;;5005098;28;20194;-71
2021/05/24 05:29:16;;;;;;;4.07;3.77;;;;;;;;;;5004176;28;20189;-71
2021/05/24 05:31:42;;;;;;;5.20;3.67;;;;;;;;;;5002947;28;20192;-71
2021/05/24 05:34:08;;;;;;;8.07;4.40;;;;;;;;;;5004946;28;20196;-70
2021/05/24 05:36:36;;;;;;;4.63;4.23;;;;;;;;;;5005370;28;20691;-71
2021/05/24 05:39:03;;;;;;;5.27;4.17;;;;;;;;;;5004050;28;20185;-71
2021/05/24 05:41:29;;;;;;;3.50;3.20;;;;;;;;;;5011304;28;20559;-71
2021/05/24 05:43:55;;;;;;;4.57;3.87;;;;;;;;;;5004888;28;20205;-70
2021/05/24 05:46:21;;;;;;;7.90;3.97;;;;;;;;;;5008472;28;20278;-71
2021/05/24 05:48:47;;;;;;;5.13;4.63;;;;;;;;;;5003967;28;20712;-71
2021/05/24 05:51:13;;;;;;;6.23;4.87;;;;;;;;;;5009883;28;20189;-70
2021/05/24 05:53:39;;;;;;;9.90;7.10;;;;;;;;;;5004251;28;20685;-71
2021/05/24 05:56:05;;;;;;;3.83;3.43;;;;;;;;;;5008953;28;20299;-71
2021/05/24 05:58:32;;;;;;;4.10;3.53;;;;;;;;;;5011944;28;20189;-71
2021/05/24 06:01:02;;;;;;;4.97;3.90;;;;;;;;;;5007495;28;20188;-71
2021/05/24 06:03:28;;;;;;;7.00;5.17;;;;;;;;;;5008288;28;20197;-71
2021/05/24 06:05:54;;;;;;;4.30;3.10;;;;;;;;;;5008868;28;20194;-70
2021/05/24 06:08:20;;;;;;;4.47;2.60;;;;;;;;;;5019439;28;20188;-71
2021/05/24 06:10:46;;;;;;;2.57;2.43;;;;;;;;;;5027293;28;20192;-71
2021/05/24 06:13:12;;;;;;;2.60;2.40;;;;;;;;;;5007542;28;20293;-71
2021/05/24 06:15:38;;;;;;;3.00;2.67;;;;;;;;;;5002513;28;20575;-71
2021/05/24 06:18:04;;;;;;;5.63;3.40;;;;;;;;;;5011400;28;20196;-71
2021/05/24 06:20:31;;;;;;;4.30;3.13;;;;;;;;;;5009594;28;20613;-70
2021/05/24 06:22:57;;;;;;;3.58;2.40;;;;;;;;;;5003131;28;20595;-70
2021/05/24 06:25:23;;;;;;;2.03;1.90;;;;;;;;;;5012014;28;20192;-70
2021/05/24 06:27:49;;;;;;;3.08;2.35;;;;;;;;;;5009876;28;20189;-71
2021/05/24 06:30:15;;;;;;;3.22;2.88;;;;;;;;;;5005534;28;20325;-70
2021/05/24 06:32:41;;;;;;;3.05;2.45;;;;;;;;;;5008153;28;20236;-70
2021/05/24 06:35:07;;;;;;;4.15;2.65;;;;;;;;;;5012754;28;20223;-71
2021/05/24 06:37:34;;;;;;;5.50;3.88;;;;;;;;;;5005664;28;20213;-72
2021/05/24 06:40:00;;;;;;;11.43;7.38;;;;;;;;;;5005997;28;20181;-72
2021/05/24 06:42:26;;;;;;;5.90;5.03;;;;;;;;;;5006163;28;20295;-72
2021/05/24 06:44:53;;;;;;;3.75;3.42;;;;;;;;;;5009083;28;20205;-72
2021/05/24 06:47:19;;;;;;;5.70;4.93;;;;;;;;;;5001987;28;20651;-72
2021/05/24 06:49:45;;;;;;;5.40;4.88;;;;;;;;;;5006576;28;20200;-72
2021/05/24 06:52:11;;;;;;;8.70;7.72;;;;;;;;;;5004724;28;20213;-71
2021/05/24 06:54:37;;;;;;;3.72;1.92;;;;;;;;;;5006001;28;20267;-71
2021/05/24 06:57:06;;;;;;;2.40;2.10;;;;;;;;;;5012634;28;20242;-71
2021/05/24 06:59:32;;;;;;;3.40;2.20;;;;;;;;;;5015433;28;20206;-71
2021/05/24 07:01:59;;;;;;;4.18;2.42;;;;;;;;;;5003750;28;20374;-73
2021/05/24 07:04:26;;;;;;;2.90;2.42;;;;;;;;;;5005469;28;20189;-72
2021/05/24 07:06:52;;;;;;;2.38;2.20;;;;;;;;;;5004253;28;20192;-72
2021/05/24 07:09:19;;;;;;;2.95;2.45;;;;;;;;;;5001639;28;20266;-73
2021/05/24 07:11:45;;;;;;;2.65;2.10;;;;;;;;;;5001475;28;20217;-73
2021/05/24 07:14:11;;;;;;;3.08;2.20;;;;;;;;;;5007890;28;20566;-73
2021/05/24 07:16:37;;;;;;;3.67;2.20;;;;;;;;;;5003704;28;20205;-73
2021/05/24 07:19:03;;;;;;;2.50;2.30;;;;;;;;;;5006227;28;20264;-73
2021/05/24 07:21:29;;;;;;;2.28;2.03;;;;;;;;;;5001993;28;20269;-73
2021/05/24 07:23:55;;;;;;;1.92;1.80;;;;;;;;;;5004705;28;20236;-72
2021/05/24 07:26:21;;;;;;;4.75;2.15;;;;;;;;;;5003650;28;20185;-72
2021/05/24 07:28:47;;;;;;;2.70;1.90;;;;;;;;;;5006864;28;20258;-72
2021/05/24 07:31:15;;;;;;;2.85;2.58;;;;;;;;;;5020128;28;20193;-72
2021/05/24 07:33:41;;;;;;;2.50;2.25;;;;;;;;;;5021929;28;20301;-72
2021/05/24 07:36:07;;;;;;;2.08;1.88;;;;;;;;;;5029172;28;20244;-72
2021/05/24 07:38:33;;;;;;;2.70;2.15;;;;;;;;;;5005158;28;20181;-72
2021/05/24 07:40:59;;;;;;;2.85;2.00;;;;;;;;;;5003306;28;20639;-71
2021/05/24 07:43:26;;;;;;;4.45;2.10;;;;;;;;;;5000015;28;20228;-72
2021/05/24 07:45:52;;;;;;;3.25;1.88;;;;;;;;;;5001602;28;20189;-72
2021/05/24 07:48:18;;;;;;;2.67;2.20;;;;;;;;;;5007839;28;20234;-71
2021/05/24 07:50:44;;;;;;;2.10;1.90;;;;;;;;;;5006448;28;20875;-71
2021/05/24 07:53:10;;;;;;;1.70;1.60;;;;;;;;;;5003331;28;20212;-71
2021/05/24 07:55:36;;;;;;;2.08;1.73;;;;;;;;;;5002254;28;20214;-71
2021/05/24 07:58:02;;;;;;;3.70;1.85;;;;;;;;;;5004916;28;20554;-69
2021/05/24 08:00:28;;;;;;;1.77;1.58;;;;;;;;;;5004633;28;20189;-71
2021/05/24 08:02:54;;;;;;;4.32;1.85;;;;;;;;;;5001118;28;20201;-72
2021/05/24 08:05:21;;;;;;;2.72;1.63;;;;;;;;;;5006716;28;20184;-70
2021/05/24 08:07:47;;;;;;;2.22;1.85;;;;;;;;;;4999842;28;20184;-73
2021/05/24 08:10:16;;;;;;;3.28;1.58;;;;;;;;;;5004472;28;20185;-71
2021/05/24 08:12:42;;;;;;;1.95;1.58;;;;;;;;;;5006997;28;20197;-70
2021/05/24 08:15:09;;;;;;;1.85;1.60;;;;;;;;;;5002935;28;20704;-72
2021/05/24 08:17:36;;;;;;;1.92;1.60;;;;;;;;;;5000063;28;20287;-74
2021/05/24 08:20:03;;;;;;;3.08;1.73;;;;;;;;;;5002166;28;20243;-74
2021/05/24 08:22:29;;;;;;;2.45;1.90;;;;;;;;;;5000795;28;20570;-68
2021/05/24 08:24:55;;;;;;;2.17;1.80;;;;;;;;;;5005899;28;20181;-71
2021/05/24 08:27:21;;;;;;;3.00;1.95;;;;;;;;;;5003676;28;20877;-70
2021/05/24 08:29:47;;;;;;;2.70;2.03;;;;;;;;;;5001355;28;20676;-69
2021/05/24 08:32:13;;;;;;;4.22;1.73;;;;;;;;;;5000523;28;20255;-70
2021/05/24 08:34:39;;;;;;;2.03;1.88;;;;;;;;;;5002344;28;20865;-70
2021/05/24 08:37:05;;;;;;;4.07;2.22;;;;;;;;;;5001483;28;20249;-70
2021/05/24 08:39:31;;;;;;;3.83;2.80;;;;;;;;;;5017941;28;20676;-69
2021/05/24 08:41:58;;;;;;;3.45;2.65;;;;;;;;;;5002952;28;20699;-68
2021/05/24 08:44:25;;;;;;;2.20;2.00;;;;;;;;;;5004592;28;20192;-69
2021/05/24 08:46:52;;;;;;;2.40;2.20;;;;;;;;;;5002350;28;20188;-70
2021/05/24 08:49:18;;;;;;;3.95;1.88;;;;;;;;;;5001898;28;20176;-68
2021/05/24 08:51:44;;;;;;;2.15;1.95;;;;;;;;;;5001549;28;20189;-69
2021/05/24 08:54:10;;;;;;;3.35;2.03;;;;;;;;;;4994029;28;20721;-69
2021/05/24 08:56:37;;;;;;;4.40;2.00;;;;;;;;;;5002636;28;20211;-71
2021/05/24 08:59:03;;;;;;;2.25;2.00;;;;;;;;;;5004664;28;20208;-70
2021/05/24 09:01:29;;;;;;;2.92;2.00;;;;;;;;;;5002260;28;20189;-70
2021/05/24 09:04:00;;;;;;;2.97;1.80;;;;;;;;;;5004199;28;20615;-70
2021/05/24 09:06:42;;;;;;;4.78;1.95;;;;;;;;;;5001966;28;20188;-70
2021/05/24 09:09:08;;;;;;;1.63;1.52;;;;;;;;;;5001396;28;20703;-71
2021/05/24 09:11:35;;;;;;;3.55;2.63;;;;;;;;;;5007271;28;20193;-70
2021/05/24 09:14:01;;;;;;;1.80;1.60;;;;;;;;;;5008237;28;20300;-71
2021/05/24 09:16:27;;;;;;;2.83;2.45;;;;;;;;;;5004622;28;20296;-71
2021/05/24 09:19:09;;;;;;;6.38;5.75;;;;;;;;;;5003946;28;20261;-71
2021/05/24 09:21:35;;;;;;;4.25;3.08;;;;;;;;;;5015646;28;20643;-71
2021/05/24 09:24:19;;;;;;;3.92;1.70;;;;;;;;;;5012050;28;20193;-70
2021/05/24 09:26:45;;;;;;;1.55;1.40;;;;;;;;;;5002265;28;20216;-71
2021/05/24 09:29:11;;;;;;;3.00;2.15;;;;;;;;;;5017648;28;20193;-70
2021/05/24 09:31:38;;;;;;;4.47;2.00;;;;;;;;;;5006661;28;20185;-70
2021/05/24 09:34:06;;;;;;;3.08;2.20;;;;;;;;;;5008482;28;20212;-70
2021/05/24 09:36:33;;;;;;;1.92;1.60;;;;;;;;;;5009737;28;20208;-70
2021/05/24 09:39:01;;;;;;;3.53;2.60;;;;;;;;;;5005539;28;20184;-70
2021/05/24 09:41:27;;;;;;;5.22;3.03;;;;;;;;;;5003483;28;20735;-71
2021/05/24 09:43:55;;;;;;;5.05;1.98;;;;;;;;;;5006437;28;20202;-70
2021/05/24 09:46:24;;;;;;;3.63;1.90;;;;;;;;;;5005100;28;20188;-70
2021/05/24 09:48:54;;;;;;;2.50;1.50;;;;;;;;;;5007436;28;20181;-70
2021/05/24 09:51:22;;;;;;;8.73;3.15;;;;;;;;;;5005781;28;20192;-71
2021/05/24 09:53:57;;;;;;;2.25;1.92;;;;;;;;;;5007042;28;20223;-71
2021/05/24 09:56:24;;;;;;;2.55;1.13;;;;;;;;;;5006098;28;20227;-70
2021/05/24 09:59:00;;;;;;;3.20;2.85;;;;;;;;;;5011037;28;20251;-71
2021/05/24 10:01:30;;;;;;;1.70;1.60;;;;;;;;;;5006159;28;20238;-70
2021/05/24 10:03:57;;;;;;;4.47;3.90;;;;;;;;;;5006003;28;20236;-70
2021/05/24 10:06:24;;;;;;;2.05;1.25;;;;;;;;;;5009721;28;20243;-70
2021/05/24 10:08:50;;;;;;;3.97;2.30;;;;;;;;;;5005039;28;20552;-71
2021/05/24 10:11:16;;;;;;;2.90;1.55;;;;;;;;;;5007723;28;20271;-71
2021/05/24 10:13:42;;;;;;;2.78;2.50;;;;;;;;;;5009397;28;20291;-71
2021/05/24 10:16:13;;;;;;;3.17;1.83;;;;;;;;;;5007123;28;20204;-70
2021/05/24 10:18:39;;;;;;;1.77;1.23;;;;;;;;;;5006740;28;20280;-70
2021/05/24 10:21:05;;;;;;;2.97;2.60;;;;;;;;;;5006159;28;20246;-71
2021/05/24 10:23:32;;;;;;;5.72;4.90;;;;;;;;;;5005827;28;20242;-71
2021/05/24 10:25:59;;;;;;;1.45;1.23;;;;;;;;;;5003410;28;20198;-70
2021/05/24 10:28:26;;;;;;;2.97;1.65;;;;;;;;;;5010078;28;20199;-71
2021/05/24 10:30:52;;;;;;;3.20;2.80;;;;;;;;;;5006689;28;20192;-71
2021/05/24 10:33:20;;;;;;;1.67;1.58;;;;;;;;;;5009474;28;20200;-71
2021/05/24 10:35:47;;;;;;;5.28;2.50;;;;;;;;;;5007199;28;20861;-71
2021/05/24 10:38:27;;;;;;;2.53;2.30;;;;;;;;;;5011930;28;20733;-71
2021/05/24 10:41:02;;;;;;;2.85;2.55;;;;;;;;;;5018652;28;20274;-71
2021/05/24 10:43:44;;;;;;;2.53;1.52;;;;;;;;;;5002838;28;20201;-71
2021/05/24 10:46:29;;;;;;;1.88;1.48;;;;;;;;;;5011621;28;20218;-71
2021/05/24 10:48:59;;;;;;;6.30;4.43;;;;;;;;;;5003716;28;20189;-70
2021/05/24 10:51:44;;;;;;;4.88;3.28;;;;;;;;;;5011745;28;20184;-70
2021/05/24 10:54:10;;;;;;;5.68;1.80;;;;;;;;;;5005327;28;20189;-70
2021/05/24 10:56:42;;;;;;;1.60;1.50;;;;;;;;;;5014967;28;20663;-70
2021/05/24 10:59:28;;;;;;;1.77;1.67;;;;;;;;;;5009007;28;20239;-70
2021/05/24 11:02:00;;;;;;;4.38;2.80;;;;;;;;;;5007659;28;20177;-72
2021/05/24 11:04:44;;;;;;;2.58;1.77;;;;;;;;;;5003782;28;20300;-70
2021/05/24 11:07:24;;;;;;;7.78;4.82;;;;;;;;;;5010756;28;20185;-70
2021/05/24 11:09:50;;;;;;;2.50;2.03;;;;;;;;;;5015554;28;20188;-71
2021/05/24 11:12:29;;;;;;;4.47;2.95;;;;;;;;;;5003954;28;20634;-71
2021/05/24 11:15:12;;;;;;;2.83;1.65;;;;;;;;;;5012215;28;20200;-70
2021/05/24 11:17:56;;;;;;;1.60;1.30;;;;;;;;;;5007557;28;20572;-70
2021/05/24 11:20:36;;;;;;;2.88;2.33;;;;;;;;;;5006079;28;20216;-70
2021/05/24 11:28:41;;;;;;;2.78;1.45;;;;;;;;;;4983663;28;20182;-70
2021/05/24 11:31:07;;;;;;;2.80;2.60;;;;;;;;;;4984253;28;20280;-70
2021/05/24 11:33:36;;;;;;;2.60;2.25;;;;;;;;;;4965575;28;20942;-70
2021/05/24 11:36:03;;;;;;;1.65;1.48;;;;;;;;;;4979335;28;20216;-71
2021/05/24 11:38:29;;;;;;;1.80;1.40;;;;;;;;;;4983922;28;20673;-71
2021/05/24 11:41:07;;;;;;;2.60;1.77;;;;;;;;;;4979328;28;20251;-70
2021/05/24 11:43:34;;;;;;;1.60;1.10;;;;;;;;;;4982782;28;20201;-71
2021/05/24 11:46:03;;;;;;;2.05;1.02;;;;;;;;;;4982763;28;20708;-70
2021/05/24 11:48:39;;;;;;;1.35;0.90;;;;;;;;;;4981696;28;20676;-71
2021/05/24 11:51:06;;;;;;;1.30;1.08;;;;;;;;;;4984558;28;20189;-72
2021/05/24 11:53:33;;;;;;;1.73;1.02;;;;;;;;;;4982685;28;20740;-70
2021/05/24 11:56:08;;;;;;;1.88;1.08;;;;;;;;;;4982597;28;20232;-72
2021/05/24 11:58:54;;;;;;;1.58;0.82;;;;;;;;;;4980190;28;20194;-72
2021/05/24 12:01:20;;;;;;;1.33;1.08;;;;;;;;;;4986773;28;20174;-72
2021/05/24 12:03:46;;;;;;;1.52;1.02;;;;;;;;;;4968914;28;20236;-72
2021/05/24 12:06:12;;;;;;;0.80;0.80;;;;;;;;;;5004493;28;20193;-71
2021/05/24 12:08:41;;;;;;;0.73;0.68;;;;;;;;;;4998512;28;20197;-71
2021/05/24 12:11:08;;;;;;;2.15;0.80;;;;;;;;;;5004201;28;20192;-71
2021/05/24 12:13:53;;;;;;;0.90;0.70;;;;;;;;;;5017663;28;20202;-70
2021/05/24 12:16:19;;;;;;;0.80;0.60;;;;;;;;;;5008164;28;20698;-70
2021/05/24 12:18:52;;;;;;;1.60;0.93;;;;;;;;;;5003359;28;20217;-70
2021/05/24 12:21:36;;;;;;;1.58;0.80;;;;;;;;;;5001405;28;20663;-71
2021/05/24 12:24:03;;;;;;;1.17;1.00;;;;;;;;;;5011293;28;20177;-71
2021/05/24 12:26:29;;;;;;;1.45;0.85;;;;;;;;;;5003062;28;20279;-72
2021/05/24 12:28:56;;;;;;;1.75;0.95;;;;;;;;;;5023548;28;20182;-71
2021/05/24 12:31:23;;;;;;;1.10;1.00;;;;;;;;;;5019966;28;20200;-71
2021/05/24 12:33:49;;;;;;;1.23;1.13;;;;;;;;;;5016639;28;20212;-72
2021/05/24 12:36:20;;;;;;;1.60;1.00;;;;;;;;;;5009630;28;20886;-72
2021/05/24 12:38:49;;;;;;;1.20;1.08;;;;;;;;;;5008419;28;20258;-72
2021/05/24 12:41:19;;;;;;;2.28;1.33;;;;;;;;;;5011230;28;20184;-72
2021/05/24 12:43:56;;;;;;;1.60;1.30;;;;;;;;;;5007856;28;20208;-71
2021/05/24 12:46:23;;;;;;;2.17;1.33;;;;;;;;;;5001784;28;20322;-71
2021/05/24 12:48:52;;;;;;;3.08;1.27;;;;;;;;;;5001644;28;20182;-71
2021/05/24 12:51:22;;;;;;;1.88;1.40;;;;;;;;;;5006446;28;20184;-71
2021/05/24 12:53:52;;;;;;;1.40;1.30;;;;;;;;;;5006356;28;20212;-72
2021/05/24 12:56:18;;;;;;;1.73;1.23;;;;;;;;;;5005962;28;20216;-71
2021/05/24 12:58:44;;;;;;;2.50;1.50;;;;;;;;;;5009201;28;20184;-71
2021/05/24 13:01:11;;;;;;;2.72;1.52;;;;;;;;;;5013233;28;20193;-71
2021/05/24 13:03:45;;;;;;;1.38;1.20;;;;;;;;;;5004770;28;20212;-71
2021/05/24 13:06:14;;;;;;;2.55;1.35;;;;;;;;;;5009901;28;20197;-71
2021/05/24 13:09:00;;;;;;;2.47;1.40;;;;;;;;;;5004534;28;20211;-71
2021/05/24 13:11:28;;;;;;;2.65;1.38;;;;;;;;;;5002703;28;20755;-71
2021/05/24 13:14:00;;;;;;;2.65;1.75;;;;;;;;;;5010665;28;20199;-71
2021/05/24 13:16:33;;;;;;;3.13;1.20;;;;;;;;;;5012017;28;20916;-71
2021/05/24 13:19:21;;;;;;;2.63;2.42;;;;;;;;;;5007702;28;20192;-71
2021/05/24 13:22:09;;;;;;;2.05;1.15;;;;;;;;;;5003911;28;20660;-71
2021/05/24 13:27:30;;;;;;;2.72;1.45;;;;;;;;;;5010357;28;20201;-71
2021/05/24 13:30:09;;;;;;;1.90;1.45;;;;;;;;;;5010238;28;20280;-71
2021/05/24 13:32:35;;;;;;;2.30;1.15;;;;;;;;;;5009282;28;20306;-71
2021/05/24 13:35:01;;;;;;;2.78;1.30;;;;;;;;;;5011435;28;20235;-71
2021/05/24 13:37:27;;;;;;;4.82;3.85;;;;;;;;;;5008713;28;20649;-71
2021/05/24 13:40:00;;;;;;;4.20;3.67;;;;;;;;;;5003628;28;20285;-71
2021/05/24 13:42:27;;;;;;;5.55;4.28;;;;;;;;;;5005080;28;20200;-71
2021/05/24 13:44:53;;;;;;;6.65;5.60;;;;;;;;;;5008793;28;20673;-71
2021/05/24 13:47:22;;;;;;;1.83;1.55;;;;;;;;;;5011843;28;20191;-71
2021/05/24 13:49:52;;;;;;;1.70;1.35;;;;;;;;;;5004782;28;20683;-71
2021/05/24 13:52:18;;;;;;;2.15;1.90;;;;;;;;;;5009596;28;20215;-71
2021/05/24 13:54:44;;;;;;;2.33;1.90;;;;;;;;;;5007702;28;20308;-71
2021/05/24 13:57:10;;;;;;;2.38;2.15;;;;;;;;;;5010759;28;20220;-71
2021/05/24 13:59:36;;;;;;;2.80;2.22;;;;;;;;;;5009321;28;20185;-71
2021/05/24 14:02:02;;;;;;;2.20;2.00;;;;;;;;;;5010719;28;20286;-71
2021/05/24 14:04:28;;;;;;;2.95;1.30;;;;;;;;;;5001814;28;20177;-71
2021/05/24 14:06:54;;;;;;;2.28;1.70;;;;;;;;;;5006270;28;20199;-71
2021/05/24 14:09:20;;;;;;;1.88;1.70;;;;;;;;;;5008442;28;20549;-71
2021/05/24 14:11:46;;;;;;;2.97;1.80;;;;;;;;;;5006382;28;20200;-71
2021/05/24 14:14:12;;;;;;;1.50;1.40;;;;;;;;;;5008361;28;20189;-71
2021/05/24 14:16:38;;;;;;;2.17;1.60;;;;;;;;;;5007649;28;20364;-72
2021/05/24 14:19:04;;;;;;;1.67;1.10;;;;;;;;;;5010641;28;20196;-71
2021/05/24 14:21:30;;;;;;;2.72;1.40;;;;;;;;;;5007913;28;20181;-71
2021/05/24 14:23:57;;;;;;;1.60;1.30;;;;;;;;;;5008366;28;20595;-71
2021/05/24 14:26:23;;;;;;;2.30;1.40;;;;;;;;;;5007410;28;20232;-71
2021/05/24 14:28:49;;;;;;;1.58;0.95;;;;;;;;;;5007743;28;20189;-72
2021/05/24 14:31:15;;;;;;;1.35;1.25;;;;;;;;;;5003133;28;20192;-71
2021/05/24 14:33:42;;;;;;;2.05;1.35;;;;;;;;;;5004886;28;20214;-71
2021/05/24 14:36:08;;;;;;;3.40;3.10;;;;;;;;;;5008458;28;20263;-69
2021/05/24 14:38:35;;;;;;;3.30;1.30;;;;;;;;;;5007857;28;20177;-70
2021/05/24 14:41:01;;;;;;;1.88;1.20;;;;;;;;;;5005768;28;20195;-69
2021/05/24 14:43:28;;;;;;;0.90;0.90;;;;;;;;;;5003244;28;20214;-70
2021/05/24 14:45:57;;;;;;;0.95;0.90;;;;;;;;;;5006699;28;20232;-71
2021/05/24 14:48:23;;;;;;;1.75;1.00;;;;;;;;;;5005549;28;20184;-70
2021/05/24 14:50:51;;;;;;;2.28;1.00;;;;;;;;;;5003767;28;20232;-70
2021/05/24 14:53:20;;;;;;;1.48;1.20;;;;;;;;;;5008346;28;20291;-70
2021/05/24 14:55:46;;;;;;;0.82;0.82;;;;;;;;;;5011481;28;20184;-70